0A9

Elizabethton Municipal Airport

Elizabethton, Tennessee, USA
METAR K0A9 181255Z AUTO 00000KT 10SM CLR 24/20 A3022 RMK AO2
Observed Flight Rules
Jun-18 @ 12:55 UTC (28 minutes ago) Visual Flight Rules
Visibility Clouds
10 miles
  • Clear skies
Temperatures Readings
Current 24°C / 75°F
Dewpoint 20°C / 68°F
Humidity 78%
Altimeter 30.22" Hg
Pressure 1023 hPa
Elevation 486
METAR K0A9 181255Z AUTO 00000KT 10SM CLR 24/20 A3022 RMK AO2
Observed Flight Rules
Jun-18 @ 12:55 UTC
(28 minutes ago)
VFR
Clouds
  • Clear skies
Temperature Dewpoint
24°C / 75°F 20°C / 68°F
Humidity Altimeter Pressure
78% 30.22" Hg 1023 hPa